createdAt,value
2022-09-03T00:00:33.279Z,58.59
2022-09-03T00:06:05.331Z,58.13
2022-09-03T00:11:29.059Z,57.81
2022-09-03T00:16:47.387Z,57.87
2022-09-03T00:22:05.739Z,57.71
2022-09-03T00:27:17.550Z,57.82
2022-09-03T00:32:44.250Z,58.43
2022-09-03T00:37:48.067Z,58.73
2022-09-03T00:43:35.074Z,58.93
2022-09-03T00:49:19.845Z,59.04
2022-09-03T00:54:47.036Z,58.83
2022-09-03T01:00:13.050Z,58.82
2022-09-03T01:06:09.364Z,58.94
2022-09-03T01:11:49.494Z,59.11
2022-09-03T01:17:13.431Z,59.16
2022-09-03T01:22:45.401Z,59.23
2022-09-03T01:28:33.631Z,59.36
2022-09-03T01:33:50.700Z,59.60
2022-09-03T01:39:00.019Z,59.46
2022-09-03T01:44:10.299Z,59.14
2022-09-03T01:49:42.717Z,59.76
2022-09-03T01:55:16.727Z,59.53
2022-09-03T02:00:20.875Z,59.66
2022-09-03T02:05:27.776Z,59.45
2022-09-03T02:11:02.930Z,59.66
2022-09-03T02:16:36.283Z,59.66
2022-09-03T02:21:54.875Z,59.44
2022-09-03T02:26:57.931Z,59.80
2022-09-03T02:32:00.999Z,60.09
2022-09-03T02:37:17.929Z,60.48
2022-09-03T02:42:21.075Z,60.63
2022-09-03T02:47:32.157Z,60.25
2022-09-03T02:52:35.220Z,60.48
2022-09-03T02:57:38.388Z,60.80
2022-09-03T03:02:43.446Z,61.00
2022-09-03T03:07:46.523Z,61.04
2022-09-03T03:12:49.591Z,61.02
2022-09-03T03:17:52.621Z,61.19
2022-09-03T03:22:55.640Z,61.13
2022-09-03T03:27:59.180Z,61.04
2022-09-03T03:33:02.207Z,60.90
2022-09-03T03:38:07.482Z,60.66
2022-09-03T03:43:10.515Z,60.38
2022-09-03T03:48:13.569Z,59.45
2022-09-03T03:53:16.644Z,59.90
2022-09-03T03:58:19.820Z,60.10
2022-09-03T04:03:22.947Z,60.83
2022-09-03T04:08:29.813Z,61.23
2022-09-03T04:13:38.804Z,61.40
2022-09-03T04:18:43.217Z,61.57
2022-09-03T04:23:48.874Z,61.73
2022-09-03T04:28:52.395Z,61.82
2022-09-03T04:33:55.591Z,61.48
2022-09-03T04:39:01.892Z,61.09
2022-09-03T04:44:04.990Z,60.51
2022-09-03T04:49:09.656Z,60.00
2022-09-03T04:54:12.718Z,59.84
2022-09-03T04:59:15.795Z,59.75
2022-09-03T05:04:19.890Z,59.14
2022-09-03T05:09:22.985Z,58.72
2022-09-03T05:14:25.981Z,58.48
2022-09-03T05:19:29.490Z,57.75
2022-09-03T05:24:32.419Z,57.13
2022-09-03T05:29:35.479Z,57.15
2022-09-03T05:34:39.204Z,56.34
2022-09-03T05:39:42.334Z,55.29
2022-09-03T05:44:45.440Z,54.29
2022-09-03T05:49:48.522Z,53.17
2022-09-03T05:54:51.592Z,53.52
2022-09-03T05:59:54.636Z,53.08
2022-09-03T06:04:57.868Z,53.15
2022-09-03T06:10:00.965Z,53.04
2022-09-03T06:15:06.123Z,52.90
2022-09-03T06:20:10.244Z,52.89
2022-09-03T06:25:15.897Z,52.67
2022-09-03T06:30:20.884Z,52.32
2022-09-03T06:35:24.023Z,51.48
2022-09-03T06:40:27.685Z,52.01
2022-09-03T06:45:31.666Z,51.48
2022-09-03T06:50:34.932Z,51.73
2022-09-03T06:55:40.280Z,51.20
2022-09-03T07:00:44.905Z,50.97
2022-09-03T07:05:48.785Z,50.88
2022-09-03T07:10:51.858Z,51.15
2022-09-03T07:16:04.839Z,50.93
2022-09-03T07:21:12.194Z,51.41
2022-09-03T07:26:26.552Z,50.83
2022-09-03T07:31:33.735Z,50.79
2022-09-03T07:36:43.175Z,51.32
2022-09-03T07:41:47.339Z,50.54
2022-09-03T07:46:51.681Z,50.90
2022-09-03T07:51:55.256Z,51.28
2022-09-03T07:56:59.325Z,51.58
2022-09-03T08:02:02.425Z,51.80
2022-09-03T08:07:05.547Z,51.39
2022-09-03T08:12:08.733Z,51.61
2022-09-03T08:17:12.887Z,52.63
2022-09-03T08:22:15.969Z,52.63
2022-09-03T08:27:26.349Z,52.03
2022-09-03T08:32:29.461Z,51.90
2022-09-03T08:37:33.335Z,52.04
2022-09-03T08:43:08.575Z,52.36
2022-09-03T08:48:23.766Z,52.17
2022-09-03T08:53:42.212Z,52.32
2022-09-03T08:58:45.397Z,52.10
2022-09-03T09:04:07.084Z,51.75
2022-09-03T09:09:15.827Z,51.19
2022-09-03T09:14:32.734Z,50.45
2022-09-03T09:20:21.656Z,49.68
2022-09-03T09:25:26.641Z,48.78
2022-09-03T09:30:32.635Z,47.43
2022-09-03T09:35:36.014Z,48.21
2022-09-03T09:40:44.755Z,47.71
2022-09-03T09:46:06.286Z,47.50
2022-09-03T09:51:38.944Z,46.79
2022-09-03T09:56:44.827Z,45.48
2022-09-03T10:01:48.007Z,43.46
2022-09-03T10:07:08.183Z,42.45
2022-09-03T10:12:31.490Z,43.22
2022-09-03T10:18:10.142Z,44.22
2022-09-03T10:23:50.426Z,42.40
2022-09-03T10:29:07.320Z,41.67
2022-09-03T10:34:23.524Z,40.02
2022-09-03T10:39:32.106Z,38.14
2022-09-03T10:45:10.327Z,39.21
2022-09-03T10:51:18.199Z,40.07
2022-09-03T10:56:29.778Z,41.03
2022-09-03T11:01:57.469Z,38.72
2022-09-03T11:07:12.972Z,39.11
2022-09-03T11:12:31.966Z,39.83
2022-09-03T11:18:18.272Z,39.55
2022-09-03T11:23:24.481Z,37.21
2022-09-03T11:28:45.491Z,36.29
2022-09-03T11:33:57.111Z,37.59
2022-09-03T11:39:00.890Z,36.26
2022-09-03T11:44:20.354Z,34.99
2022-09-03T11:49:31.514Z,35.61
2022-09-03T11:54:45.880Z,35.97
2022-09-03T11:59:49.241Z,35.48
2022-09-03T12:05:06.502Z,36.43
2022-09-03T12:10:51.162Z,33.82
2022-09-03T12:16:37.775Z,32.58
2022-09-03T12:21:41.775Z,35.05
2022-09-03T12:26:45.005Z,34.97
2022-09-03T12:31:51.121Z,34.87
2022-09-03T12:36:55.695Z,34.78
2022-09-03T12:42:09.550Z,34.36
2022-09-03T12:52:46.850Z,34.44
2022-09-03T12:58:04.318Z,35.15
2022-09-03T13:03:13.227Z,35.08
2022-09-03T13:08:23.900Z,34.78
2022-09-03T13:13:32.199Z,33.77
2022-09-03T13:18:44.872Z,34.47
2022-09-03T13:24:03.430Z,34.47
2022-09-03T13:29:39.806Z,34.47
2022-09-03T13:34:57.483Z,34.04
2022-09-03T13:40:31.787Z,34.79
2022-09-03T13:45:52.510Z,34.23
2022-09-03T13:51:32.490Z,34.59
2022-09-03T13:57:09.269Z,34.31
2022-09-03T14:02:27.319Z,34.67
2022-09-03T14:07:57.446Z,34.88
2022-09-03T14:13:11.775Z,34.63
2022-09-03T14:18:52.963Z,34.66
2022-09-03T14:24:09.610Z,34.69
2022-09-03T14:29:12.560Z,35.20
2022-09-03T14:34:43.235Z,35.49
2022-09-03T14:40:03.878Z,35.56
2022-09-03T14:45:30.491Z,35.48
2022-09-03T14:51:19.937Z,36.00
2022-09-03T14:56:39.070Z,35.66
2022-09-03T15:01:45.144Z,35.92
2022-09-03T15:07:06.884Z,36.36
2022-09-03T15:12:40.692Z,36.02
2022-09-03T15:18:06.875Z,36.12
2022-09-03T15:23:25.047Z,36.14
2022-09-03T15:29:05.032Z,36.51
2022-09-03T15:34:36.509Z,36.22
2022-09-03T15:39:44.567Z,36.46
2022-09-03T15:44:55.161Z,36.78
2022-09-03T15:50:03.594Z,37.56
2022-09-03T15:55:32.228Z,37.66
2022-09-03T16:01:11.527Z,37.15
2022-09-03T16:07:11.606Z,38.81
2022-09-03T16:13:04.887Z,41.60
2022-09-03T16:18:26.319Z,43.16
2022-09-03T16:23:46.932Z,43.91
2022-09-03T16:29:03.186Z,44.98
2022-09-03T16:34:19.073Z,45.98
2022-09-03T16:40:13.669Z,47.08
2022-09-03T16:46:06.965Z,48.04
2022-09-03T16:51:46.651Z,48.92
2022-09-03T16:57:19.396Z,49.49
2022-09-03T17:02:41.826Z,49.70
2022-09-03T17:07:59.255Z,50.08
2022-09-03T17:13:32.801Z,50.31
2022-09-03T17:18:59.187Z,50.65
2022-09-03T17:24:22.605Z,51.30
2022-09-03T17:29:53.867Z,51.98
2022-09-03T17:35:02.586Z,52.78
2022-09-03T17:40:49.605Z,53.38
2022-09-03T17:46:10.836Z,54.00
2022-09-03T17:51:46.559Z,54.31
2022-09-03T17:57:24.845Z,54.88
2022-09-03T18:02:45.771Z,55.19
2022-09-03T18:08:24.085Z,55.44
2022-09-03T18:13:42.423Z,55.65
2022-09-03T18:18:53.656Z,55.92
2022-09-03T18:24:35.175Z,56.56
2022-09-03T18:30:20.117Z,56.97
2022-09-03T18:35:45.738Z,57.05
2022-09-03T18:41:31.709Z,57.21
2022-09-03T18:48:02.256Z,57.90
2022-09-03T18:53:02.172Z,57.60
2022-09-03T18:58:36.391Z,56.99
2022-09-03T19:04:03.115Z,57.06
2022-09-03T19:10:04.757Z,57.63
2022-09-03T19:16:06.343Z,58.11
2022-09-03T19:21:49.610Z,58.64
2022-09-03T19:27:51.768Z,59.08
2022-09-03T19:33:30.717Z,59.51
2022-09-03T19:39:32.973Z,59.93
2022-09-03T19:45:43.070Z,59.90
2022-09-03T19:51:28.974Z,60.06
2022-09-03T19:56:50.543Z,60.05
2022-09-03T20:02:12.116Z,60.00
2022-09-03T20:07:35.221Z,60.15
2022-09-03T20:12:44.586Z,60.13
2022-09-03T20:17:53.748Z,60.46
2022-09-03T20:23:03.434Z,60.62
2022-09-03T20:28:45.616Z,60.86
2022-09-03T20:34:14.675Z,61.15
2022-09-03T20:39:36.072Z,61.59
2022-09-03T20:44:54.442Z,61.68
2022-09-03T20:50:23.211Z,61.75
2022-09-03T20:55:50.197Z,61.81
2022-09-03T21:00:58.224Z,61.85
2022-09-03T21:06:20.405Z,61.73
2022-09-03T21:11:47.434Z,61.53
2022-09-03T21:17:30.986Z,61.96
2022-09-03T21:23:25.937Z,61.80
2022-09-03T21:28:40.868Z,62.31
2022-09-03T21:33:51.510Z,62.55
2022-09-03T21:39:06.265Z,63.18
2022-09-03T21:44:20.946Z,63.34
2022-09-03T21:49:35.906Z,63.29
2022-09-03T21:54:40.353Z,63.47
2022-09-03T22:00:12.285Z,63.57
2022-09-03T22:05:18.605Z,63.58
2022-09-03T22:10:47.354Z,63.43
2022-09-03T22:15:57.835Z,63.62
2022-09-03T22:21:13.481Z,64.02
2022-09-03T22:26:36.207Z,64.11
2022-09-03T22:32:11.673Z,64.53
2022-09-03T22:37:34.867Z,64.55
2022-09-03T22:42:52.789Z,64.38
2022-09-03T22:48:26.588Z,64.55
2022-09-03T22:53:43.877Z,64.38
2022-09-03T22:59:13.181Z,64.41
2022-09-03T23:04:36.947Z,64.57
2022-09-03T23:09:44.471Z,64.79
2022-09-03T23:14:54.236Z,64.99
2022-09-03T23:20:26.720Z,64.91
2022-09-03T23:25:41.309Z,65.16
2022-09-03T23:30:44.397Z,65.01
2022-09-03T23:36:31.626Z,64.66
2022-09-03T23:42:11.294Z,64.99
2022-09-03T23:47:54.796Z,65.12
2022-09-03T23:53:09.309Z,65.04
2022-09-03T23:58:42.209Z,65.19
